sensor_id;sensor_type;location;lat;lon;timestamp;temperature;humidity
16402;DHT22;8310;44.626;11.176;2023-07-08T00:02:10;25.30;52.60
16402;DHT22;8310;44.626;11.176;2023-07-08T00:04:38;25.30;52.70
16402;DHT22;8310;44.626;11.176;2023-07-08T00:07:07;25.30;52.70
16402;DHT22;8310;44.626;11.176;2023-07-08T00:09:37;25.30;52.60
16402;DHT22;8310;44.626;11.176;2023-07-08T00:12:09;25.20;52.30
16402;DHT22;8310;44.626;11.176;2023-07-08T00:14:37;25.10;52.10
16402;DHT22;8310;44.626;11.176;2023-07-08T00:17:08;25.00;52.10
16402;DHT22;8310;44.626;11.176;2023-07-08T00:19:35;24.80;52.00
16402;DHT22;8310;44.626;11.176;2023-07-08T00:22:07;24.70;52.00
16402;DHT22;8310;44.626;11.176;2023-07-08T00:24:35;24.60;52.00
16402;DHT22;8310;44.626;11.176;2023-07-08T00:27:02;24.50;51.80
16402;DHT22;8310;44.626;11.176;2023-07-08T00:29:31;24.30;51.80
16402;DHT22;8310;44.626;11.176;2023-07-08T00:31:58;24.20;52.00
16402;DHT22;8310;44.626;11.176;2023-07-08T00:34:26;24.20;52.10
16402;DHT22;8310;44.626;11.176;2023-07-08T00:36:53;24.10;52.30
16402;DHT22;8310;44.626;11.176;2023-07-08T00:39:20;24.10;52.30
16402;DHT22;8310;44.626;11.176;2023-07-08T00:41:47;24.10;52.40
16402;DHT22;8310;44.626;11.176;2023-07-08T00:44:15;24.10;52.40
16402;DHT22;8310;44.626;11.176;2023-07-08T00:46:49;24.10;52.40
16402;DHT22;8310;44.626;11.176;2023-07-08T00:49:26;24.00;52.30
16402;DHT22;8310;44.626;11.176;2023-07-08T00:51:55;23.90;52.10
16402;DHT22;8310;44.626;11.176;2023-07-08T00:54:22;23.90;52.20
16402;DHT22;8310;44.626;11.176;2023-07-08T00:56:51;23.80;52.40
16402;DHT22;8310;44.626;11.176;2023-07-08T00:59:23;23.80;52.40
16402;DHT22;8310;44.626;11.176;2023-07-08T01:01:53;23.80;52.40
16402;DHT22;8310;44.626;11.176;2023-07-08T01:04:22;23.80;52.50
16402;DHT22;8310;44.626;11.176;2023-07-08T01:06:51;23.70;52.50
16402;DHT22;8310;44.626;11.176;2023-07-08T01:09:23;23.70;52.50
16402;DHT22;8310;44.626;11.176;2023-07-08T01:11:51;23.60;52.60
16402;DHT22;8310;44.626;11.176;2023-07-08T01:14:19;23.60;52.60
16402;DHT22;8310;44.626;11.176;2023-07-08T01:16:47;23.60;52.60
16402;DHT22;8310;44.626;11.176;2023-07-08T01:19:17;23.60;52.70
16402;DHT22;8310;44.626;11.176;2023-07-08T01:21:48;23.60;52.70
16402;DHT22;8310;44.626;11.176;2023-07-08T01:24:25;23.60;52.80
16402;DHT22;8310;44.626;11.176;2023-07-08T01:26:54;23.60;52.80
16402;DHT22;8310;44.626;11.176;2023-07-08T01:29:21;23.60;52.80
16402;DHT22;8310;44.626;11.176;2023-07-08T01:31:49;23.60;52.70
16402;DHT22;8310;44.626;11.176;2023-07-08T01:34:16;23.60;52.70
16402;DHT22;8310;44.626;11.176;2023-07-08T01:36:44;23.50;52.60
16402;DHT22;8310;44.626;11.176;2023-07-08T01:39:16;23.50;52.60
16402;DHT22;8310;44.626;11.176;2023-07-08T01:41:44;23.40;52.50
16402;DHT22;8310;44.626;11.176;2023-07-08T01:44:19;23.30;52.50
16402;DHT22;8310;44.626;11.176;2023-07-08T01:46:46;23.20;52.40
16402;DHT22;8310;44.626;11.176;2023-07-08T01:49:13;23.10;52.30
16402;DHT22;8310;44.626;11.176;2023-07-08T01:51:40;23.10;52.50
16402;DHT22;8310;44.626;11.176;2023-07-08T01:54:07;23.00;52.50
16402;DHT22;8310;44.626;11.176;2023-07-08T01:56:36;23.00;52.50
16402;DHT22;8310;44.626;11.176;2023-07-08T01:59:03;22.90;52.40
16402;DHT22;8310;44.626;11.176;2023-07-08T02:01:30;22.90;52.30
16402;DHT22;8310;44.626;11.176;2023-07-08T02:03:58;22.80;52.40
16402;DHT22;8310;44.626;11.176;2023-07-08T02:06:25;22.70;52.50
16402;DHT22;8310;44.626;11.176;2023-07-08T02:08:53;22.70;52.60
16402;DHT22;8310;44.626;11.176;2023-07-08T02:11:20;22.60;52.50
16402;DHT22;8310;44.626;11.176;2023-07-08T02:13:49;22.60;52.50
16402;DHT22;8310;44.626;11.176;2023-07-08T02:16:16;22.60;52.50
16402;DHT22;8310;44.626;11.176;2023-07-08T02:18:43;22.50;52.60
16402;DHT22;8310;44.626;11.176;2023-07-08T02:21:11;22.50;52.80
16402;DHT22;8310;44.626;11.176;2023-07-08T02:23:38;22.60;52.90
16402;DHT22;8310;44.626;11.176;2023-07-08T02:26:04;22.60;52.90
16402;DHT22;8310;44.626;11.176;2023-07-08T02:28:32;22.60;52.90
16402;DHT22;8310;44.626;11.176;2023-07-08T02:31:02;22.60;52.90
16402;DHT22;8310;44.626;11.176;2023-07-08T02:33:30;22.60;52.90
16402;DHT22;8310;44.626;11.176;2023-07-08T02:35:58;22.60;52.90
16402;DHT22;8310;44.626;11.176;2023-07-08T02:38:25;22.60;52.90
16402;DHT22;8310;44.626;11.176;2023-07-08T02:40:52;22.60;53.00
16402;DHT22;8310;44.626;11.176;2023-07-08T02:43:20;22.60;53.10
16402;DHT22;8310;44.626;11.176;2023-07-08T02:45:48;22.70;53.20
16402;DHT22;8310;44.626;11.176;2023-07-08T02:48:18;22.70;53.20
16402;DHT22;8310;44.626;11.176;2023-07-08T02:50:45;22.70;53.20
16402;DHT22;8310;44.626;11.176;2023-07-08T02:53:13;22.70;53.10
16402;DHT22;8310;44.626;11.176;2023-07-08T02:55:40;22.70;53.10
16402;DHT22;8310;44.626;11.176;2023-07-08T02:58:08;22.70;53.00
16402;DHT22;8310;44.626;11.176;2023-07-08T03:00:36;22.70;53.00
16402;DHT22;8310;44.626;11.176;2023-07-08T03:03:04;22.70;53.10
16402;DHT22;8310;44.626;11.176;2023-07-08T03:05:32;22.60;53.70
16402;DHT22;8310;44.626;11.176;2023-07-08T03:08:00;22.60;53.10
16402;DHT22;8310;44.626;11.176;2023-07-08T03:10:27;22.60;53.20
16402;DHT22;8310;44.626;11.176;2023-07-08T03:12:55;22.60;53.30
16402;DHT22;8310;44.626;11.176;2023-07-08T03:15:22;22.60;53.30
16402;DHT22;8310;44.626;11.176;2023-07-08T03:17:49;22.70;53.30
16402;DHT22;8310;44.626;11.176;2023-07-08T03:20:19;22.70;53.40
16402;DHT22;8310;44.626;11.176;2023-07-08T03:22:48;22.70;53.40
16402;DHT22;8310;44.626;11.176;2023-07-08T03:25:16;22.70;53.40
16402;DHT22;8310;44.626;11.176;2023-07-08T03:27:45;22.70;53.20
16402;DHT22;8310;44.626;11.176;2023-07-08T03:30:12;22.60;53.20
16402;DHT22;8310;44.626;11.176;2023-07-08T03:32:39;22.60;53.30
16402;DHT22;8310;44.626;11.176;2023-07-08T03:35:07;22.60;53.40
16402;DHT22;8310;44.626;11.176;2023-07-08T03:37:35;22.60;53.40
16402;DHT22;8310;44.626;11.176;2023-07-08T03:40:05;22.70;53.50
16402;DHT22;8310;44.626;11.176;2023-07-08T03:42:35;22.70;53.50
16402;DHT22;8310;44.626;11.176;2023-07-08T03:45:01;22.70;53.50
16402;DHT22;8310;44.626;11.176;2023-07-08T03:47:29;22.70;53.50
16402;DHT22;8310;44.626;11.176;2023-07-08T03:49:56;22.70;53.60
16402;DHT22;8310;44.626;11.176;2023-07-08T03:52:23;22.80;53.70
16402;DHT22;8310;44.626;11.176;2023-07-08T03:54:50;22.80;53.70
16402;DHT22;8310;44.626;11.176;2023-07-08T03:57:19;22.80;53.70
16402;DHT22;8310;44.626;11.176;2023-07-08T03:59:47;22.80;53.70
16402;DHT22;8310;44.626;11.176;2023-07-08T04:02:13;22.90;53.80
16402;DHT22;8310;44.626;11.176;2023-07-08T04:04:41;22.90;53.80
16402;DHT22;8310;44.626;11.176;2023-07-08T04:07:08;22.90;53.80
16402;DHT22;8310;44.626;11.176;2023-07-08T04:09:35;22.90;53.80
16402;DHT22;8310;44.626;11.176;2023-07-08T04:12:02;23.00;53.90
16402;DHT22;8310;44.626;11.176;2023-07-08T04:14:32;23.00;53.90
16402;DHT22;8310;44.626;11.176;2023-07-08T04:16:59;23.00;54.00
16402;DHT22;8310;44.626;11.176;2023-07-08T04:19:26;23.10;54.10
16402;DHT22;8310;44.626;11.176;2023-07-08T04:21:54;23.10;54.10
16402;DHT22;8310;44.626;11.176;2023-07-08T04:24:21;23.20;54.10
16402;DHT22;8310;44.626;11.176;2023-07-08T04:26:48;23.20;54.20
16402;DHT22;8310;44.626;11.176;2023-07-08T04:29:17;23.30;54.20
16402;DHT22;8310;44.626;11.176;2023-07-08T04:31:46;23.30;54.20
16402;DHT22;8310;44.626;11.176;2023-07-08T04:34:14;23.40;54.30
16402;DHT22;8310;44.626;11.176;2023-07-08T04:36:41;23.40;54.20
16402;DHT22;8310;44.626;11.176;2023-07-08T04:39:09;23.40;54.10
16402;DHT22;8310;44.626;11.176;2023-07-08T04:41:36;23.40;54.10
16402;DHT22;8310;44.626;11.176;2023-07-08T04:44:05;23.40;54.20
16402;DHT22;8310;44.626;11.176;2023-07-08T04:46:34;23.30;54.20
16402;DHT22;8310;44.626;11.176;2023-07-08T04:49:04;23.40;54.30
16402;DHT22;8310;44.626;11.176;2023-07-08T04:51:31;23.30;54.30
16402;DHT22;8310;44.626;11.176;2023-07-08T04:53:59;23.40;54.40
16402;DHT22;8310;44.626;11.176;2023-07-08T04:56:34;23.40;54.40
16402;DHT22;8310;44.626;11.176;2023-07-08T04:59:02;23.40;54.50
16402;DHT22;8310;44.626;11.176;2023-07-08T05:01:30;23.40;54.50
16402;DHT22;8310;44.626;11.176;2023-07-08T05:03:57;23.40;54.60
16402;DHT22;8310;44.626;11.176;2023-07-08T05:06:26;23.50;54.70
16402;DHT22;8310;44.626;11.176;2023-07-08T05:08:54;23.50;54.80
16402;DHT22;8310;44.626;11.176;2023-07-08T05:11:21;23.60;54.90
16402;DHT22;8310;44.626;11.176;2023-07-08T05:13:48;23.60;54.80
16402;DHT22;8310;44.626;11.176;2023-07-08T05:16:16;23.70;55.50
16402;DHT22;8310;44.626;11.176;2023-07-08T05:18:43;23.80;55.00
16402;DHT22;8310;44.626;11.176;2023-07-08T05:21:11;23.80;55.00
16402;DHT22;8310;44.626;11.176;2023-07-08T05:23:40;23.90;55.10
16402;DHT22;8310;44.626;11.176;2023-07-08T05:26:07;24.00;55.20
16402;DHT22;8310;44.626;11.176;2023-07-08T05:28:34;24.10;55.20
16402;DHT22;8310;44.626;11.176;2023-07-08T05:31:02;24.20;55.30
16402;DHT22;8310;44.626;11.176;2023-07-08T05:33:30;24.30;55.30
16402;DHT22;8310;44.626;11.176;2023-07-08T05:35:58;24.30;55.40
16402;DHT22;8310;44.626;11.176;2023-07-08T05:38:25;24.50;55.50
16402;DHT22;8310;44.626;11.176;2023-07-08T05:40:55;24.60;56.20
16402;DHT22;8310;44.626;11.176;2023-07-08T05:43:22;24.70;55.70
16402;DHT22;8310;44.626;11.176;2023-07-08T05:45:49;24.90;55.90
16402;DHT22;8310;44.626;11.176;2023-07-08T05:48:16;25.00;55.90
16402;DHT22;8310;44.626;11.176;2023-07-08T05:50:44;25.20;56.00
16402;DHT22;8310;44.626;11.176;2023-07-08T05:53:12;25.40;56.20
16402;DHT22;8310;44.626;11.176;2023-07-08T05:55:40;25.50;56.20
16402;DHT22;8310;44.626;11.176;2023-07-08T05:58:09;25.70;56.20
16402;DHT22;8310;44.626;11.176;2023-07-08T06:00:36;25.80;56.20
16402;DHT22;8310;44.626;11.176;2023-07-08T06:03:04;25.90;56.00
16402;DHT22;8310;44.626;11.176;2023-07-08T06:05:31;26.00;56.00
16402;DHT22;8310;44.626;11.176;2023-07-08T06:07:59;26.10;56.10
16402;DHT22;8310;44.626;11.176;2023-07-08T06:10:25;26.20;56.10
16402;DHT22;8310;44.626;11.176;2023-07-08T06:12:53;26.30;56.20
16402;DHT22;8310;44.626;11.176;2023-07-08T06:15:22;26.40;56.00
16402;DHT22;8310;44.626;11.176;2023-07-08T06:17:49;26.40;55.80
16402;DHT22;8310;44.626;11.176;2023-07-08T06:20:17;26.40;55.80
16402;DHT22;8310;44.626;11.176;2023-07-08T06:22:44;26.40;55.80
16402;DHT22;8310;44.626;11.176;2023-07-08T06:25:11;26.50;56.00
16402;DHT22;8310;44.626;11.176;2023-07-08T06:27:38;26.50;55.90
16402;DHT22;8310;44.626;11.176;2023-07-08T06:30:06;26.60;55.70
16402;DHT22;8310;44.626;11.176;2023-07-08T06:32:35;26.60;55.70
16402;DHT22;8310;44.626;11.176;2023-07-08T06:35:03;26.60;55.70
16402;DHT22;8310;44.626;11.176;2023-07-08T06:37:30;26.60;56.30
16402;DHT22;8310;44.626;11.176;2023-07-08T06:39:57;26.60;55.70
16402;DHT22;8310;44.626;11.176;2023-07-08T06:42:25;26.70;55.90
16402;DHT22;8310;44.626;11.176;2023-07-08T06:44:52;26.80;56.10
16402;DHT22;8310;44.626;11.176;2023-07-08T06:47:20;26.90;56.10
16402;DHT22;8310;44.626;11.176;2023-07-08T06:49:50;27.00;56.20
16402;DHT22;8310;44.626;11.176;2023-07-08T06:52:17;27.10;56.40
16402;DHT22;8310;44.626;11.176;2023-07-08T06:54:44;27.20;56.30
16402;DHT22;8310;44.626;11.176;2023-07-08T06:57:11;27.30;56.40
16402;DHT22;8310;44.626;11.176;2023-07-08T06:59:38;27.40;56.50
16402;DHT22;8310;44.626;11.176;2023-07-08T07:02:07;27.60;56.70
16402;DHT22;8310;44.626;11.176;2023-07-08T07:04:35;27.70;56.40
16402;DHT22;8310;44.626;11.176;2023-07-08T07:07:04;27.80;56.20
16402;DHT22;8310;44.626;11.176;2023-07-08T07:09:32;27.70;55.80
16402;DHT22;8310;44.626;11.176;2023-07-08T07:12:00;27.70;55.50
16402;DHT22;8310;44.626;11.176;2023-07-08T07:14:27;27.60;55.50
16402;DHT22;8310;44.626;11.176;2023-07-08T07:16:54;27.60;55.90
16402;DHT22;8310;44.626;11.176;2023-07-08T07:19:22;27.60;55.90
16402;DHT22;8310;44.626;11.176;2023-07-08T07:21:49;27.60;55.80
16402;DHT22;8310;44.626;11.176;2023-07-08T07:24:17;27.70;56.70
16402;DHT22;8310;44.626;11.176;2023-07-08T07:26:45;27.80;56.30
16402;DHT22;8310;44.626;11.176;2023-07-08T07:29:13;27.90;56.50
16402;DHT22;8310;44.626;11.176;2023-07-08T07:31:40;28.10;56.70
16402;DHT22;8310;44.626;11.176;2023-07-08T07:34:08;28.30;56.90
16402;DHT22;8310;44.626;11.176;2023-07-08T07:36:35;28.50;57.10
16402;DHT22;8310;44.626;11.176;2023-07-08T07:39:02;28.70;57.20
16402;DHT22;8310;44.626;11.176;2023-07-08T07:41:31;28.90;57.10
16402;DHT22;8310;44.626;11.176;2023-07-08T07:43:58;29.00;57.10
16402;DHT22;8310;44.626;11.176;2023-07-08T07:46:26;29.10;56.90
16402;DHT22;8310;44.626;11.176;2023-07-08T07:48:53;29.20;56.70
16402;DHT22;8310;44.626;11.176;2023-07-08T07:51:20;29.30;56.90
16402;DHT22;8310;44.626;11.176;2023-07-08T07:53:48;29.40;57.00
16402;DHT22;8310;44.626;11.176;2023-07-08T07:56:15;29.50;57.20
16402;DHT22;8310;44.626;11.176;2023-07-08T07:58:44;29.60;57.40
16402;DHT22;8310;44.626;11.176;2023-07-08T08:01:11;29.80;57.40
16402;DHT22;8310;44.626;11.176;2023-07-08T08:03:38;30.00;57.40
16402;DHT22;8310;44.626;11.176;2023-07-08T08:06:06;30.10;57.40
16402;DHT22;8310;44.626;11.176;2023-07-08T08:08:33;30.20;58.00
16402;DHT22;8310;44.626;11.176;2023-07-08T08:11:00;30.30;57.30
16402;DHT22;8310;44.626;11.176;2023-07-08T08:13:28;30.40;57.30
16402;DHT22;8310;44.626;11.176;2023-07-08T08:15:57;30.50;57.10
16402;DHT22;8310;44.626;11.176;2023-07-08T08:18:25;30.60;56.90
16402;DHT22;8310;44.626;11.176;2023-07-08T08:20:52;30.60;57.00
16402;DHT22;8310;44.626;11.176;2023-07-08T08:23:19;30.70;57.20
16402;DHT22;8310;44.626;11.176;2023-07-08T08:25:46;30.80;57.30
16402;DHT22;8310;44.626;11.176;2023-07-08T08:28:13;30.90;57.30
16402;DHT22;8310;44.626;11.176;2023-07-08T08:30:40;31.10;57.20
16402;DHT22;8310;44.626;11.176;2023-07-08T08:33:09;31.10;57.30
16402;DHT22;8310;44.626;11.176;2023-07-08T08:35:37;31.20;57.30
16402;DHT22;8310;44.626;11.176;2023-07-08T08:38:04;31.30;56.90
16402;DHT22;8310;44.626;11.176;2023-07-08T08:40:31;31.30;56.70
16402;DHT22;8310;44.626;11.176;2023-07-08T08:43:00;31.30;56.80
16402;DHT22;8310;44.626;11.176;2023-07-08T08:45:29;31.30;56.80
16402;DHT22;8310;44.626;11.176;2023-07-08T08:48:00;31.30;56.70
16402;DHT22;8310;44.626;11.176;2023-07-08T08:50:34;31.30;56.70
16402;DHT22;8310;44.626;11.176;2023-07-08T08:53:04;31.40;56.40
16402;DHT22;8310;44.626;11.176;2023-07-08T08:55:32;31.30;56.40
16402;DHT22;8310;44.626;11.176;2023-07-08T08:58:06;31.40;56.10
16402;DHT22;8310;44.626;11.176;2023-07-08T09:00:41;31.30;56.00
16402;DHT22;8310;44.626;11.176;2023-07-08T09:03:10;31.10;55.80
16402;DHT22;8310;44.626;11.176;2023-07-08T09:05:41;31.10;56.00
16402;DHT22;8310;44.626;11.176;2023-07-08T09:08:11;31.00;55.80
16402;DHT22;8310;44.626;11.176;2023-07-08T09:10:42;31.00;55.90
16402;DHT22;8310;44.626;11.176;2023-07-08T09:13:12;31.00;56.20
16402;DHT22;8310;44.626;11.176;2023-07-08T09:15:42;31.10;56.40
16402;DHT22;8310;44.626;11.176;2023-07-08T09:18:13;31.20;56.60
16402;DHT22;8310;44.626;11.176;2023-07-08T09:20:43;31.30;56.90
16402;DHT22;8310;44.626;11.176;2023-07-08T09:23:11;31.40;56.90
16402;DHT22;8310;44.626;11.176;2023-07-08T09:25:46;31.60;57.40
16402;DHT22;8310;44.626;11.176;2023-07-08T09:28:15;31.70;56.70
16402;DHT22;8310;44.626;11.176;2023-07-08T09:30:42;31.70;56.80
16402;DHT22;8310;44.626;11.176;2023-07-08T09:33:13;31.90;56.70
16402;DHT22;8310;44.626;11.176;2023-07-08T09:35:41;31.90;56.40
16402;DHT22;8310;44.626;11.176;2023-07-08T09:38:13;31.90;56.40
16402;DHT22;8310;44.626;11.176;2023-07-08T09:40:42;31.90;56.30
16402;DHT22;8310;44.626;11.176;2023-07-08T09:43:16;32.00;56.30
16402;DHT22;8310;44.626;11.176;2023-07-08T09:45:46;32.00;56.30
16402;DHT22;8310;44.626;11.176;2023-07-08T09:48:14;32.00;56.30
16402;DHT22;8310;44.626;11.176;2023-07-08T09:50:43;32.00;56.10
16402;DHT22;8310;44.626;11.176;2023-07-08T09:53:13;32.00;55.90
16402;DHT22;8310;44.626;11.176;2023-07-08T09:55:40;31.90;55.70
16402;DHT22;8310;44.626;11.176;2023-07-08T09:58:08;31.90;56.00
16402;DHT22;8310;44.626;11.176;2023-07-08T10:00:38;32.00;56.20
16402;DHT22;8310;44.626;11.176;2023-07-08T10:03:08;32.00;56.30
16402;DHT22;8310;44.626;11.176;2023-07-08T10:05:38;32.10;56.30
16402;DHT22;8310;44.626;11.176;2023-07-08T10:08:10;32.20;56.50
16402;DHT22;8310;44.626;11.176;2023-07-08T10:10:40;32.40;56.80
16402;DHT22;8310;44.626;11.176;2023-07-08T10:13:12;32.50;56.50
16402;DHT22;8310;44.626;11.176;2023-07-08T10:15:42;32.50;55.90
16402;DHT22;8310;44.626;11.176;2023-07-08T10:18:12;32.50;55.90
16402;DHT22;8310;44.626;11.176;2023-07-08T10:20:42;32.50;55.90
16402;DHT22;8310;44.626;11.176;2023-07-08T10:23:16;32.50;56.10
16402;DHT22;8310;44.626;11.176;2023-07-08T10:25:49;32.60;56.30
16402;DHT22;8310;44.626;11.176;2023-07-08T10:28:23;32.70;56.50
16402;DHT22;8310;44.626;11.176;2023-07-08T10:30:54;32.70;56.30
16402;DHT22;8310;44.626;11.176;2023-07-08T10:33:36;32.80;56.10
16402;DHT22;8310;44.626;11.176;2023-07-08T10:36:13;32.80;56.10
16402;DHT22;8310;44.626;11.176;2023-07-08T10:38:45;32.90;56.20
16402;DHT22;8310;44.626;11.176;2023-07-08T10:41:18;32.90;56.30
16402;DHT22;8310;44.626;11.176;2023-07-08T10:43:53;33.00;56.40
16402;DHT22;8310;44.626;11.176;2023-07-08T10:46:24;33.10;56.30
16402;DHT22;8310;44.626;11.176;2023-07-08T10:49:05;33.20;56.60
16402;DHT22;8310;44.626;11.176;2023-07-08T10:51:38;33.30;56.40
16402;DHT22;8310;44.626;11.176;2023-07-08T10:54:12;33.40;56.20
16402;DHT22;8310;44.626;11.176;2023-07-08T10:56:45;33.50;56.50
16402;DHT22;8310;44.626;11.176;2023-07-08T10:59:22;33.50;56.50
16402;DHT22;8310;44.626;11.176;2023-07-08T11:01:57;33.70;56.50
16402;DHT22;8310;44.626;11.176;2023-07-08T11:04:37;33.70;56.40
16402;DHT22;8310;44.626;11.176;2023-07-08T11:07:10;33.80;56.30
16402;DHT22;8310;44.626;11.176;2023-07-08T11:09:40;33.90;56.30
16402;DHT22;8310;44.626;11.176;2023-07-08T11:12:11;34.00;57.00
16402;DHT22;8310;44.626;11.176;2023-07-08T11:14:45;34.00;56.50
16402;DHT22;8310;44.626;11.176;2023-07-08T11:17:15;34.10;56.40
16402;DHT22;8310;44.626;11.176;2023-07-08T11:19:45;34.20;56.20
16402;DHT22;8310;44.626;11.176;2023-07-08T11:22:14;34.20;56.00
16402;DHT22;8310;44.626;11.176;2023-07-08T11:24:44;34.20;56.00
16402;DHT22;8310;44.626;11.176;2023-07-08T11:27:15;34.20;56.00
16402;DHT22;8310;44.626;11.176;2023-07-08T11:29:45;34.20;56.10
16402;DHT22;8310;44.626;11.176;2023-07-08T11:32:14;34.30;56.20
16402;DHT22;8310;44.626;11.176;2023-07-08T11:34:43;34.40;56.30
16402;DHT22;8310;44.626;11.176;2023-07-08T11:37:13;34.50;56.20
16402;DHT22;8310;44.626;11.176;2023-07-08T11:39:41;34.50;56.20
16402;DHT22;8310;44.626;11.176;2023-07-08T11:42:19;34.60;55.50
16402;DHT22;8310;44.626;11.176;2023-07-08T11:44:48;34.60;55.50
16402;DHT22;8310;44.626;11.176;2023-07-08T11:47:18;34.50;55.40
16402;DHT22;8310;44.626;11.176;2023-07-08T11:49:46;34.50;55.30
16402;DHT22;8310;44.626;11.176;2023-07-08T11:52:16;34.40;55.40
16402;DHT22;8310;44.626;11.176;2023-07-08T11:54:45;34.40;55.60
16402;DHT22;8310;44.626;11.176;2023-07-08T11:57:16;34.50;55.70
16402;DHT22;8310;44.626;11.176;2023-07-08T11:59:45;34.50;55.50
16402;DHT22;8310;44.626;11.176;2023-07-08T12:02:14;34.50;55.40
16402;DHT22;8310;44.626;11.176;2023-07-08T12:04:57;34.50;55.30
16402;DHT22;8310;44.626;11.176;2023-07-08T12:07:31;34.50;55.40
16402;DHT22;8310;44.626;11.176;2023-07-08T12:10:00;34.50;55.50
16402;DHT22;8310;44.626;11.176;2023-07-08T12:12:31;34.60;55.30
16402;DHT22;8310;44.626;11.176;2023-07-08T12:15:04;34.60;55.10
16402;DHT22;8310;44.626;11.176;2023-07-08T12:17:31;34.60;55.10
16402;DHT22;8310;44.626;11.176;2023-07-08T12:19:59;34.60;55.00
16402;DHT22;8310;44.626;11.176;2023-07-08T12:22:29;34.50;55.00
16402;DHT22;8310;44.626;11.176;2023-07-08T12:24:56;34.60;55.20
16402;DHT22;8310;44.626;11.176;2023-07-08T12:27:29;34.60;55.70
16402;DHT22;8310;44.626;11.176;2023-07-08T12:29:56;34.60;54.80
16402;DHT22;8310;44.626;11.176;2023-07-08T12:32:25;34.60;54.90
16402;DHT22;8310;44.626;11.176;2023-07-08T12:34:54;34.70;55.10
16402;DHT22;8310;44.626;11.176;2023-07-08T12:37:22;34.70;55.30
16402;DHT22;8310;44.626;11.176;2023-07-08T12:39:56;34.80;55.50
16402;DHT22;8310;44.626;11.176;2023-07-08T12:42:26;34.90;55.30
16402;DHT22;8310;44.626;11.176;2023-07-08T12:44:53;34.90;55.00
16402;DHT22;8310;44.626;11.176;2023-07-08T12:47:20;34.90;55.00
16402;DHT22;8310;44.626;11.176;2023-07-08T12:49:49;34.90;55.10
16402;DHT22;8310;44.626;11.176;2023-07-08T12:52:20;34.90;55.10
16402;DHT22;8310;44.626;11.176;2023-07-08T12:54:48;35.00;55.20
16402;DHT22;8310;44.626;11.176;2023-07-08T12:57:16;35.00;55.00
16402;DHT22;8310;44.626;11.176;2023-07-08T12:59:44;35.00;54.70
16402;DHT22;8310;44.626;11.176;2023-07-08T13:02:14;34.90;54.70
16402;DHT22;8310;44.626;11.176;2023-07-08T13:04:42;34.90;55.00
16402;DHT22;8310;44.626;11.176;2023-07-08T13:07:14;35.00;54.90
16402;DHT22;8310;44.626;11.176;2023-07-08T13:09:48;35.00;55.00
16402;DHT22;8310;44.626;11.176;2023-07-08T13:12:17;35.10;55.20
16402;DHT22;8310;44.626;11.176;2023-07-08T13:14:49;35.20;55.30
16402;DHT22;8310;44.626;11.176;2023-07-08T13:17:16;35.30;55.20
16402;DHT22;8310;44.626;11.176;2023-07-08T13:19:43;35.40;56.00
16402;DHT22;8310;44.626;11.176;2023-07-08T13:22:14;35.50;55.40
16402;DHT22;8310;44.626;11.176;2023-07-08T13:24:42;35.70;55.60
16402;DHT22;8310;44.626;11.176;2023-07-08T13:27:13;35.80;55.40
16402;DHT22;8310;44.626;11.176;2023-07-08T13:29:41;35.90;55.40
16402;DHT22;8310;44.626;11.176;2023-07-08T13:32:09;36.00;55.40
16402;DHT22;8310;44.626;11.176;2023-07-08T13:34:37;36.00;55.10
16402;DHT22;8310;44.626;11.176;2023-07-08T13:37:07;36.00;54.70
16402;DHT22;8310;44.626;11.176;2023-07-08T13:39:38;35.90;54.40
16402;DHT22;8310;44.626;11.176;2023-07-08T13:42:06;35.90;54.50
16402;DHT22;8310;44.626;11.176;2023-07-08T13:44:33;35.80;54.40
16402;DHT22;8310;44.626;11.176;2023-07-08T13:47:00;35.80;54.60
16402;DHT22;8310;44.626;11.176;2023-07-08T13:49:29;35.80;54.70
16402;DHT22;8310;44.626;11.176;2023-07-08T13:52:07;35.80;54.40
16402;DHT22;8310;44.626;11.176;2023-07-08T13:54:34;35.80;54.10
16402;DHT22;8310;44.626;11.176;2023-07-08T13:57:08;35.70;54.20
16402;DHT22;8310;44.626;11.176;2023-07-08T13:59:35;35.60;54.20
16402;DHT22;8310;44.626;11.176;2023-07-08T14:02:08;35.60;54.10
16402;DHT22;8310;44.626;11.176;2023-07-08T14:04:40;35.50;54.00
16402;DHT22;8310;44.626;11.176;2023-07-08T14:07:09;35.50;54.20
16402;DHT22;8310;44.626;11.176;2023-07-08T14:09:37;35.50;54.20
16402;DHT22;8310;44.626;11.176;2023-07-08T14:12:07;35.60;54.30
16402;DHT22;8310;44.626;11.176;2023-07-08T14:14:34;35.70;54.20
16402;DHT22;8310;44.626;11.176;2023-07-08T14:17:01;35.70;54.30
16402;DHT22;8310;44.626;11.176;2023-07-08T14:19:29;35.80;54.50
16402;DHT22;8310;44.626;11.176;2023-07-08T14:21:58;35.80;54.60
16402;DHT22;8310;44.626;11.176;2023-07-08T14:24:25;35.90;54.70
16402;DHT22;8310;44.626;11.176;2023-07-08T14:26:53;36.00;54.60
16402;DHT22;8310;44.626;11.176;2023-07-08T14:29:22;36.10;54.60
16402;DHT22;8310;44.626;11.176;2023-07-08T14:31:49;36.20;54.60
16402;DHT22;8310;44.626;11.176;2023-07-08T14:34:17;36.30;54.60
16402;DHT22;8310;44.626;11.176;2023-07-08T14:36:48;36.40;54.50
16402;DHT22;8310;44.626;11.176;2023-07-08T14:39:15;36.40;54.30
16402;DHT22;8310;44.626;11.176;2023-07-08T14:41:43;36.40;54.10
16402;DHT22;8310;44.626;11.176;2023-07-08T14:44:17;36.40;54.00
16402;DHT22;8310;44.626;11.176;2023-07-08T14:46:47;36.40;54.20
16402;DHT22;8310;44.626;11.176;2023-07-08T14:49:15;36.40;54.20
16402;DHT22;8310;44.626;11.176;2023-07-08T14:51:43;36.40;54.10
16402;DHT22;8310;44.626;11.176;2023-07-08T14:54:11;36.40;53.70
16402;DHT22;8310;44.626;11.176;2023-07-08T14:56:39;36.30;53.50
16402;DHT22;8310;44.626;11.176;2023-07-08T14:59:08;36.20;53.40
16402;DHT22;8310;44.626;11.176;2023-07-08T15:01:37;36.20;53.60
16402;DHT22;8310;44.626;11.176;2023-07-08T15:04:09;36.10;53.40
16402;DHT22;8310;44.626;11.176;2023-07-08T15:06:37;36.10;53.40
16402;DHT22;8310;44.626;11.176;2023-07-08T15:09:05;36.00;53.20
16402;DHT22;8310;44.626;11.176;2023-07-08T15:11:32;35.90;53.40
16402;DHT22;8310;44.626;11.176;2023-07-08T15:13:59;35.90;53.30
16402;DHT22;8310;44.626;11.176;2023-07-08T15:16:27;36.00;53.40
16402;DHT22;8310;44.626;11.176;2023-07-08T15:18:55;35.90;53.30
16402;DHT22;8310;44.626;11.176;2023-07-08T15:21:24;35.90;53.30
16402;DHT22;8310;44.626;11.176;2023-07-08T15:23:52;35.90;53.00
16402;DHT22;8310;44.626;11.176;2023-07-08T15:26:19;35.90;53.00
16402;DHT22;8310;44.626;11.176;2023-07-08T15:28:46;35.80;53.10
16402;DHT22;8310;44.626;11.176;2023-07-08T15:31:15;35.80;53.30
16402;DHT22;8310;44.626;11.176;2023-07-08T15:33:42;35.90;53.40
16402;DHT22;8310;44.626;11.176;2023-07-08T15:36:10;35.90;53.30
16402;DHT22;8310;44.626;11.176;2023-07-08T15:38:40;35.90;53.80
16402;DHT22;8310;44.626;11.176;2023-07-08T15:41:10;35.90;53.30